תחנות METAR סמוכות

 

LIBG - Grottaglie(Civ/A, Italy
Distance from station: 'צמ 13km
עודכן: 27/02/2024 17:50
Few Clouds
Few Clouds
 רוח מ 'דדמ
רוח: 'דדמ 24 km/h
טמפרטורה: 15°C
נקודת הטל: 11°C
לחות: 77%
ברומטר: 1012 hPa
עננים: Few Clouds
ראות: 10 km
Cloud details: Few Clouds 610 m
2024/02/27 16:50 LIBG 271650Z 15013KT 9999 FEW020 15/11 Q1012
LIBH - Marina Di Ginosa, Italy
Distance from station: 'מ 33km
עודכן: 27/02/2024 17:55
Few Clouds
Few Clouds
 רוח מ 'דדמ
רוח: 'דדמ 46 km/h
טמפרטורה: 15°C
נקודת הטל: 13°C
לחות: 88%
ברומטר: 1010 hPa
עננים: Few Clouds
ראות: 10 km
Cloud details: Few Clouds 610 m
2024/02/27 16:55 LIBH 271655Z 15025KT 9999 FEW020 15/13 Q1010 RMK OVC OOVC200 QUK 3 QUL 2 VIS MAR 15 KM VIS MIN 9999
 
LIBV - Gioia Del Colle, Italy
Distance from station: 'צמ 45km
עודכן: 27/02/2024 17:55
Mist, עננות כבדה
Mist, עננות כבדה
 רוח מ 'דדמ
רוח: 'דדמ 46 km/h, משב: 65 km/h
טמפרטורה: 13°C
נקודת הטל: 12°C
לחות: 94%
ברומטר: 1010 hPa
סיכום: Mist
עננים: עננות כבדה
ראות: 5 km
Cloud details: עננות כבדה 152 m
2024/02/27 16:55 LIBV 271655Z 15025G35KT 5000 BR OVC005 13/12 Q1010
LIBR - Brindisi/Casale, Italy
Distance from station: 'מצמ 62km
עודכן: 27/02/2024 18:20
בהיר
בהיר
 רוח מ 'דדמ
רוח: 'דדמ 20 km/h
טמפרטורה: 15°C
נקודת הטל: 12°C
לחות: 82%
ברומטר: 1012 hPa
סיכום: בהיר
ראות: greater than 10 km
2024/02/27 17:20 LIBR 271720Z 16011KT CAVOK 15/12 Q1012
 
LIBN - Lecce (it-Afb), Italy
Distance from station: 'מדמ 79km
עודכן: 27/02/2024 17:55
מעונן חלקית
מעונן חלקית
 רוח מ 'דמ
רוח: 'דמ 24 km/h
טמפרטורה: 14°C
נקודת הטל: 13°C
לחות: 94%
ברומטר: 1012 hPa
עננים: מעונן חלקית
ראות: 10 km
Cloud details: מעונן חלקית 457 m
2024/02/27 16:55 LIBN 271655Z 14013KT 9999 SCT015 14/13 Q1012
LIBD - Bari/Palese Macc, Italy
Distance from station: 'צצמ 85km
עודכן: 27/02/2024 18:20
מעונן חלקית
מעונן חלקית
 רוח מ 'דדמ
רוח: 'דדמ 22 km/h
טמפרטורה: 15°C
נקודת הטל: 11°C
לחות: 77%
ברומטר: 1010 hPa
עננים: מעונן חלקית
ראות: 10 km
Cloud details: מעונן חלקית 914 m
2024/02/27 17:20 LIBD 271720Z 15012KT 9999 SCT030 15/11 Q1010